sensor_id;sensor_type;location;lat;lon;timestamp;P1;durP1;ratioP1;P2;durP2;ratioP2
20739;SDS011;10530;49.968;19.844;2023-02-07T00:02:42;14.82;;;8.38;;
20739;SDS011;10530;49.968;19.844;2023-02-07T00:07:45;23.48;;;9.23;;
20739;SDS011;10530;49.968;19.844;2023-02-07T00:12:48;30.42;;;12.05;;
20739;SDS011;10530;49.968;19.844;2023-02-07T00:17:51;24.25;;;10.18;;
20739;SDS011;10530;49.968;19.844;2023-02-07T00:22:54;14.10;;;9.20;;
20739;SDS011;10530;49.968;19.844;2023-02-07T00:27:57;20.40;;;8.60;;
20739;SDS011;10530;49.968;19.844;2023-02-07T00:33:00;23.60;;;8.10;;
20739;SDS011;10530;49.968;19.844;2023-02-07T00:38:03;19.73;;;7.80;;
20739;SDS011;10530;49.968;19.844;2023-02-07T00:43:07;16.50;;;5.95;;
20739;SDS011;10530;49.968;19.844;2023-02-07T00:48:13;17.90;;;7.97;;
20739;SDS011;10530;49.968;19.844;2023-02-07T00:53:17;21.15;;;7.53;;
20739;SDS011;10530;49.968;19.844;2023-02-07T00:58:19;19.80;;;10.57;;
20739;SDS011;10530;49.968;19.844;2023-02-07T01:03:23;22.35;;;9.35;;
20739;SDS011;10530;49.968;19.844;2023-02-07T01:08:25;17.08;;;7.20;;
20739;SDS011;10530;49.968;19.844;2023-02-07T01:13:28;20.07;;;10.20;;
20739;SDS011;10530;49.968;19.844;2023-02-07T01:18:32;18.50;;;9.63;;
20739;SDS011;10530;49.968;19.844;2023-02-07T01:23:36;18.00;;;9.63;;
20739;SDS011;10530;49.968;19.844;2023-02-07T01:28:38;23.90;;;9.88;;
20739;SDS011;10530;49.968;19.844;2023-02-07T01:33:41;24.45;;;9.20;;
20739;SDS011;10530;49.968;19.844;2023-02-07T01:38:44;22.90;;;9.93;;
20739;SDS011;10530;49.968;19.844;2023-02-07T01:48:56;14.60;;;7.47;;
20739;SDS011;10530;49.968;19.844;2023-02-07T01:54:03;28.52;;;10.90;;
20739;SDS011;10530;49.968;19.844;2023-02-07T01:59:09;19.33;;;9.20;;
20739;SDS011;10530;49.968;19.844;2023-02-07T02:04:14;17.93;;;7.70;;
20739;SDS011;10530;49.968;19.844;2023-02-07T02:09:16;14.70;;;8.65;;
20739;SDS011;10530;49.968;19.844;2023-02-07T02:14:30;29.92;;;11.52;;
20739;SDS011;10530;49.968;19.844;2023-02-07T02:41:20;22.73;;;10.23;;
20739;SDS011;10530;49.968;19.844;2023-02-07T02:46:29;18.42;;;8.77;;
20739;SDS011;10530;49.968;19.844;2023-02-07T02:51:36;17.02;;;7.07;;
20739;SDS011;10530;49.968;19.844;2023-02-07T02:56:51;26.20;;;11.57;;
20739;SDS011;10530;49.968;19.844;2023-02-07T03:02:17;14.68;;;8.63;;
20739;SDS011;10530;49.968;19.844;2023-02-07T03:13:27;19.90;;;7.90;;
20739;SDS011;10530;49.968;19.844;2023-02-07T03:23:59;27.63;;;10.33;;
20739;SDS011;10530;49.968;19.844;2023-02-07T03:29:08;20.55;;;9.65;;
20739;SDS011;10530;49.968;19.844;2023-02-07T03:34:16;18.83;;;9.75;;
20739;SDS011;10530;49.968;19.844;2023-02-07T03:39:23;24.30;;;10.75;;
20739;SDS011;10530;49.968;19.844;2023-02-07T03:44:26;27.25;;;11.25;;
20739;SDS011;10530;49.968;19.844;2023-02-07T03:49:32;28.73;;;10.77;;
20739;SDS011;10530;49.968;19.844;2023-02-07T03:54:35;15.93;;;7.93;;
20739;SDS011;10530;49.968;19.844;2023-02-07T03:59:38;14.40;;;7.28;;
20739;SDS011;10530;49.968;19.844;2023-02-07T04:04:40;9.48;;;5.95;;
20739;SDS011;10530;49.968;19.844;2023-02-07T04:09:43;21.60;;;10.35;;
20739;SDS011;10530;49.968;19.844;2023-02-07T04:14:46;11.67;;;6.37;;
20739;SDS011;10530;49.968;19.844;2023-02-07T04:19:49;10.82;;;4.50;;
20739;SDS011;10530;49.968;19.844;2023-02-07T04:24:51;24.75;;;6.55;;
20739;SDS011;10530;49.968;19.844;2023-02-07T04:29:54;18.00;;;6.50;;
20739;SDS011;10530;49.968;19.844;2023-02-07T04:34:57;21.13;;;6.45;;
20739;SDS011;10530;49.968;19.844;2023-02-07T04:39:59;5.60;;;2.83;;
20739;SDS011;10530;49.968;19.844;2023-02-07T04:45:02;24.25;;;7.50;;
20739;SDS011;10530;49.968;19.844;2023-02-07T04:50:06;17.50;;;7.75;;
20739;SDS011;10530;49.968;19.844;2023-02-07T04:55:09;11.07;;;4.38;;
20739;SDS011;10530;49.968;19.844;2023-02-07T05:00:12;17.83;;;7.70;;
20739;SDS011;10530;49.968;19.844;2023-02-07T05:05:15;14.70;;;5.97;;
20739;SDS011;10530;49.968;19.844;2023-02-07T05:10:18;14.48;;;8.00;;
20739;SDS011;10530;49.968;19.844;2023-02-07T05:15:20;14.93;;;7.10;;
20739;SDS011;10530;49.968;19.844;2023-02-07T05:20:24;26.40;;;10.02;;
20739;SDS011;10530;49.968;19.844;2023-02-07T05:25:27;34.40;;;12.38;;
20739;SDS011;10530;49.968;19.844;2023-02-07T05:30:30;24.53;;;11.90;;
20739;SDS011;10530;49.968;19.844;2023-02-07T05:40:40;19.48;;;9.60;;
20739;SDS011;10530;49.968;19.844;2023-02-07T05:45:44;22.30;;;9.95;;
20739;SDS011;10530;49.968;19.844;2023-02-07T05:50:47;21.92;;;9.25;;
20739;SDS011;10530;49.968;19.844;2023-02-07T05:55:50;21.23;;;10.47;;
20739;SDS011;10530;49.968;19.844;2023-02-07T06:00:54;20.52;;;8.73;;
20739;SDS011;10530;49.968;19.844;2023-02-07T06:05:57;23.52;;;9.02;;
20739;SDS011;10530;49.968;19.844;2023-02-07T06:10:59;24.23;;;10.00;;
20739;SDS011;10530;49.968;19.844;2023-02-07T06:16:02;27.63;;;9.93;;
20739;SDS011;10530;49.968;19.844;2023-02-07T06:21:06;17.73;;;8.50;;
20739;SDS011;10530;49.968;19.844;2023-02-07T06:26:10;18.48;;;9.85;;
20739;SDS011;10530;49.968;19.844;2023-02-07T06:31:13;25.10;;;9.05;;
20739;SDS011;10530;49.968;19.844;2023-02-07T06:36:16;27.13;;;10.82;;
20739;SDS011;10530;49.968;19.844;2023-02-07T06:41:20;16.48;;;6.70;;
20739;SDS011;10530;49.968;19.844;2023-02-07T06:46:23;20.47;;;7.83;;
20739;SDS011;10530;49.968;19.844;2023-02-07T06:51:27;24.65;;;10.50;;
20739;SDS011;10530;49.968;19.844;2023-02-07T06:56:30;15.77;;;7.63;;
20739;SDS011;10530;49.968;19.844;2023-02-07T07:01:33;23.88;;;11.15;;
20739;SDS011;10530;49.968;19.844;2023-02-07T07:06:36;21.15;;;6.63;;
20739;SDS011;10530;49.968;19.844;2023-02-07T07:11:39;13.93;;;8.60;;
20739;SDS011;10530;49.968;19.844;2023-02-07T07:16:45;25.33;;;12.75;;
20739;SDS011;10530;49.968;19.844;2023-02-07T07:21:48;18.02;;;10.45;;
20739;SDS011;10530;49.968;19.844;2023-02-07T07:26:51;4.00;;;2.88;;
20739;SDS011;10530;49.968;19.844;2023-02-07T07:31:54;18.75;;;7.45;;
20739;SDS011;10530;49.968;19.844;2023-02-07T07:36:56;22.47;;;10.23;;
20739;SDS011;10530;49.968;19.844;2023-02-07T07:41:59;17.25;;;9.50;;
20739;SDS011;10530;49.968;19.844;2023-02-07T07:47:20;14.60;;;9.43;;
20739;SDS011;10530;49.968;19.844;2023-02-07T07:52:23;22.30;;;11.85;;
20739;SDS011;10530;49.968;19.844;2023-02-07T07:57:26;25.90;;;10.45;;
20739;SDS011;10530;49.968;19.844;2023-02-07T08:02:29;24.83;;;9.70;;
20739;SDS011;10530;49.968;19.844;2023-02-07T08:07:32;33.03;;;11.43;;
20739;SDS011;10530;49.968;19.844;2023-02-07T08:12:35;26.25;;;10.90;;
20739;SDS011;10530;49.968;19.844;2023-02-07T08:17:38;19.88;;;9.43;;
20739;SDS011;10530;49.968;19.844;2023-02-07T08:22:41;20.70;;;10.00;;
20739;SDS011;10530;49.968;19.844;2023-02-07T08:27:44;27.27;;;10.60;;
20739;SDS011;10530;49.968;19.844;2023-02-07T08:32:47;17.00;;;9.43;;
20739;SDS011;10530;49.968;19.844;2023-02-07T08:37:53;19.90;;;9.77;;
20739;SDS011;10530;49.968;19.844;2023-02-07T08:42:57;24.80;;;11.27;;
20739;SDS011;10530;49.968;19.844;2023-02-07T08:48:00;8.60;;;4.53;;
20739;SDS011;10530;49.968;19.844;2023-02-07T08:53:03;27.10;;;12.13;;
20739;SDS011;10530;49.968;19.844;2023-02-07T08:58:06;31.85;;;11.75;;
20739;SDS011;10530;49.968;19.844;2023-02-07T09:03:09;37.80;;;14.07;;
20739;SDS011;10530;49.968;19.844;2023-02-07T09:08:15;26.38;;;11.48;;
20739;SDS011;10530;49.968;19.844;2023-02-07T09:13:19;32.15;;;12.10;;
20739;SDS011;10530;49.968;19.844;2023-02-07T09:18:23;30.87;;;13.63;;
20739;SDS011;10530;49.968;19.844;2023-02-07T09:23:28;24.08;;;10.60;;
20739;SDS011;10530;49.968;19.844;2023-02-07T09:28:35;43.67;;;13.38;;
20739;SDS011;10530;49.968;19.844;2023-02-07T09:33:39;34.45;;;13.80;;
20739;SDS011;10530;49.968;19.844;2023-02-07T09:38:43;42.92;;;16.50;;
20739;SDS011;10530;49.968;19.844;2023-02-07T09:43:54;42.07;;;14.30;;
20739;SDS011;10530;49.968;19.844;2023-02-07T09:49:10;32.78;;;11.35;;
20739;SDS011;10530;49.968;19.844;2023-02-07T09:54:41;27.13;;;12.20;;
20739;SDS011;10530;49.968;19.844;2023-02-07T10:00:00;16.35;;;8.85;;
20739;SDS011;10530;49.968;19.844;2023-02-07T10:05:51;33.80;;;15.05;;
20739;SDS011;10530;49.968;19.844;2023-02-07T10:11:36;37.87;;;12.73;;
20739;SDS011;10530;49.968;19.844;2023-02-07T10:17:29;33.55;;;16.35;;
20739;SDS011;10530;49.968;19.844;2023-02-07T10:38:26;36.67;;;12.87;;
20739;SDS011;10530;49.968;19.844;2023-02-07T10:43:39;27.10;;;13.35;;
20739;SDS011;10530;49.968;19.844;2023-02-07T10:48:44;19.38;;;11.57;;
20739;SDS011;10530;49.968;19.844;2023-02-07T10:53:50;27.15;;;10.13;;
20739;SDS011;10530;49.968;19.844;2023-02-07T10:59:04;25.00;;;11.75;;
20739;SDS011;10530;49.968;19.844;2023-02-07T11:04:35;33.07;;;13.23;;
20739;SDS011;10530;49.968;19.844;2023-02-07T11:09:42;48.20;;;17.70;;
20739;SDS011;10530;49.968;19.844;2023-02-07T11:15:01;35.55;;;13.88;;
20739;SDS011;10530;49.968;19.844;2023-02-07T11:20:23;42.35;;;15.60;;
20739;SDS011;10530;49.968;19.844;2023-02-07T11:25:35;32.67;;;16.20;;
20739;SDS011;10530;49.968;19.844;2023-02-07T11:30:52;20.73;;;9.77;;
20739;SDS011;10530;49.968;19.844;2023-02-07T11:36:00;37.75;;;17.15;;
20739;SDS011;10530;49.968;19.844;2023-02-07T11:41:08;46.88;;;20.42;;
20739;SDS011;10530;49.968;19.844;2023-02-07T11:46:22;30.92;;;16.20;;
20739;SDS011;10530;49.968;19.844;2023-02-07T11:51:41;33.45;;;14.98;;
20739;SDS011;10530;49.968;19.844;2023-02-07T11:56:58;36.47;;;13.27;;
20739;SDS011;10530;49.968;19.844;2023-02-07T12:02:12;44.90;;;18.63;;
20739;SDS011;10530;49.968;19.844;2023-02-07T12:07:24;45.33;;;18.05;;
20739;SDS011;10530;49.968;19.844;2023-02-07T12:12:41;38.08;;;15.10;;
20739;SDS011;10530;49.968;19.844;2023-02-07T12:18:17;36.58;;;16.00;;
20739;SDS011;10530;49.968;19.844;2023-02-07T12:24:10;41.93;;;15.67;;
20739;SDS011;10530;49.968;19.844;2023-02-07T12:34:29;25.45;;;11.60;;
20739;SDS011;10530;49.968;19.844;2023-02-07T12:45:04;28.73;;;12.20;;
20739;SDS011;10530;49.968;19.844;2023-02-07T13:06:10;39.85;;;16.63;;
20739;SDS011;10530;49.968;19.844;2023-02-07T13:11:40;41.72;;;14.82;;
20739;SDS011;10530;49.968;19.844;2023-02-07T13:16:56;21.00;;;7.80;;
20739;SDS011;10530;49.968;19.844;2023-02-07T13:27:45;31.73;;;12.18;;
20739;SDS011;10530;49.968;19.844;2023-02-07T13:32:50;36.08;;;12.73;;
20739;SDS011;10530;49.968;19.844;2023-02-07T13:43:09;37.40;;;15.77;;
20739;SDS011;10530;49.968;19.844;2023-02-07T13:48:29;42.08;;;15.52;;
20739;SDS011;10530;49.968;19.844;2023-02-07T13:59:39;15.52;;;6.90;;
20739;SDS011;10530;49.968;19.844;2023-02-07T14:04:49;40.97;;;17.70;;
20739;SDS011;10530;49.968;19.844;2023-02-07T14:09:54;29.03;;;13.23;;
20739;SDS011;10530;49.968;19.844;2023-02-07T14:25:40;35.22;;;15.70;;
20739;SDS011;10530;49.968;19.844;2023-02-07T14:41:15;58.55;;;21.35;;
20739;SDS011;10530;49.968;19.844;2023-02-07T14:46:40;55.55;;;20.13;;
20739;SDS011;10530;49.968;19.844;2023-02-07T15:07:29;46.10;;;19.00;;
20739;SDS011;10530;49.968;19.844;2023-02-07T15:12:32;49.88;;;20.02;;
20739;SDS011;10530;49.968;19.844;2023-02-07T15:17:35;48.90;;;20.13;;
20739;SDS011;10530;49.968;19.844;2023-02-07T15:22:46;37.03;;;16.38;;
20739;SDS011;10530;49.968;19.844;2023-02-07T15:27:58;45.83;;;17.53;;
20739;SDS011;10530;49.968;19.844;2023-02-07T15:33:09;42.60;;;17.77;;
20739;SDS011;10530;49.968;19.844;2023-02-07T15:38:15;25.23;;;13.00;;
20739;SDS011;10530;49.968;19.844;2023-02-07T15:43:33;46.33;;;19.45;;
20739;SDS011;10530;49.968;19.844;2023-02-07T15:48:49;35.28;;;15.75;;
20739;SDS011;10530;49.968;19.844;2023-02-07T15:53:56;47.53;;;17.90;;
20739;SDS011;10530;49.968;19.844;2023-02-07T15:59:07;33.75;;;17.00;;
20739;SDS011;10530;49.968;19.844;2023-02-07T16:04:12;42.20;;;17.10;;
20739;SDS011;10530;49.968;19.844;2023-02-07T16:09:32;38.03;;;15.38;;
20739;SDS011;10530;49.968;19.844;2023-02-07T16:14:39;48.30;;;21.25;;
20739;SDS011;10530;49.968;19.844;2023-02-07T16:19:44;42.17;;;17.33;;
20739;SDS011;10530;49.968;19.844;2023-02-07T16:24:47;33.38;;;14.30;;
20739;SDS011;10530;49.968;19.844;2023-02-07T16:29:52;51.30;;;18.60;;
20739;SDS011;10530;49.968;19.844;2023-02-07T16:34:56;46.70;;;19.25;;
20739;SDS011;10530;49.968;19.844;2023-02-07T16:40:01;58.08;;;21.38;;
20739;SDS011;10530;49.968;19.844;2023-02-07T16:45:04;52.37;;;19.80;;
20739;SDS011;10530;49.968;19.844;2023-02-07T16:50:12;52.17;;;19.63;;
20739;SDS011;10530;49.968;19.844;2023-02-07T16:55:25;52.15;;;18.58;;
20739;SDS011;10530;49.968;19.844;2023-02-07T17:00:29;53.97;;;22.10;;
20739;SDS011;10530;49.968;19.844;2023-02-07T17:05:32;58.03;;;20.13;;
20739;SDS011;10530;49.968;19.844;2023-02-07T17:10:35;35.73;;;16.50;;
20739;SDS011;10530;49.968;19.844;2023-02-07T17:15:38;49.63;;;18.77;;
20739;SDS011;10530;49.968;19.844;2023-02-07T17:20:41;64.93;;;20.90;;
20739;SDS011;10530;49.968;19.844;2023-02-07T17:25:44;47.15;;;19.33;;
20739;SDS011;10530;49.968;19.844;2023-02-07T17:30:47;49.40;;;19.05;;
20739;SDS011;10530;49.968;19.844;2023-02-07T17:35:51;60.33;;;24.10;;
20739;SDS011;10530;49.968;19.844;2023-02-07T17:40:54;63.63;;;22.40;;
20739;SDS011;10530;49.968;19.844;2023-02-07T17:45:57;56.45;;;21.60;;
20739;SDS011;10530;49.968;19.844;2023-02-07T17:51:00;78.18;;;25.25;;
20739;SDS011;10530;49.968;19.844;2023-02-07T17:56:03;63.40;;;24.38;;
20739;SDS011;10530;49.968;19.844;2023-02-07T18:01:06;64.63;;;24.00;;
20739;SDS011;10530;49.968;19.844;2023-02-07T18:06:12;80.40;;;26.33;;
20739;SDS011;10530;49.968;19.844;2023-02-07T18:11:16;70.72;;;25.35;;
20739;SDS011;10530;49.968;19.844;2023-02-07T18:16:20;68.57;;;25.77;;
20739;SDS011;10530;49.968;19.844;2023-02-07T18:21:25;67.63;;;27.55;;
20739;SDS011;10530;49.968;19.844;2023-02-07T18:26:28;50.37;;;21.60;;
20739;SDS011;10530;49.968;19.844;2023-02-07T18:31:32;68.05;;;25.15;;
20739;SDS011;10530;49.968;19.844;2023-02-07T18:36:35;68.32;;;22.88;;
20739;SDS011;10530;49.968;19.844;2023-02-07T18:41:41;58.70;;;22.30;;
20739;SDS011;10530;49.968;19.844;2023-02-07T18:46:44;64.15;;;24.42;;
20739;SDS011;10530;49.968;19.844;2023-02-07T18:51:48;60.57;;;24.50;;
20739;SDS011;10530;49.968;19.844;2023-02-07T18:56:51;65.10;;;25.77;;
20739;SDS011;10530;49.968;19.844;2023-02-07T19:01:54;71.18;;;25.45;;
20739;SDS011;10530;49.968;19.844;2023-02-07T19:06:57;74.88;;;25.67;;
20739;SDS011;10530;49.968;19.844;2023-02-07T19:12:00;75.93;;;26.48;;
20739;SDS011;10530;49.968;19.844;2023-02-07T19:17:03;71.13;;;26.40;;
20739;SDS011;10530;49.968;19.844;2023-02-07T19:22:06;73.65;;;27.77;;
20739;SDS011;10530;49.968;19.844;2023-02-07T19:27:09;77.60;;;26.30;;
20739;SDS011;10530;49.968;19.844;2023-02-07T19:32:12;73.85;;;29.67;;
20739;SDS011;10530;49.968;19.844;2023-02-07T19:37:14;56.00;;;21.15;;
20739;SDS011;10530;49.968;19.844;2023-02-07T19:42:18;57.60;;;25.33;;
20739;SDS011;10530;49.968;19.844;2023-02-07T19:47:20;77.50;;;27.70;;
20739;SDS011;10530;49.968;19.844;2023-02-07T19:52:23;70.03;;;23.25;;
20739;SDS011;10530;49.968;19.844;2023-02-07T19:57:26;65.85;;;24.48;;
20739;SDS011;10530;49.968;19.844;2023-02-07T20:02:29;68.03;;;21.70;;
20739;SDS011;10530;49.968;19.844;2023-02-07T20:07:31;73.67;;;24.60;;
20739;SDS011;10530;49.968;19.844;2023-02-07T20:12:34;79.45;;;26.40;;
20739;SDS011;10530;49.968;19.844;2023-02-07T20:17:37;60.58;;;22.38;;
20739;SDS011;10530;49.968;19.844;2023-02-07T20:22:40;64.07;;;23.48;;
20739;SDS011;10530;49.968;19.844;2023-02-07T20:27:43;65.32;;;24.20;;
20739;SDS011;10530;49.968;19.844;2023-02-07T20:32:46;63.80;;;25.53;;
20739;SDS011;10530;49.968;19.844;2023-02-07T20:37:49;63.65;;;26.60;;
20739;SDS011;10530;49.968;19.844;2023-02-07T20:42:52;70.03;;;28.15;;
20739;SDS011;10530;49.968;19.844;2023-02-07T20:47:55;62.47;;;23.70;;
20739;SDS011;10530;49.968;19.844;2023-02-07T20:52:58;69.97;;;25.15;;
20739;SDS011;10530;49.968;19.844;2023-02-07T20:58:02;64.87;;;23.20;;
20739;SDS011;10530;49.968;19.844;2023-02-07T21:03:05;65.20;;;26.05;;
20739;SDS011;10530;49.968;19.844;2023-02-07T21:08:08;64.68;;;27.35;;
20739;SDS011;10530;49.968;19.844;2023-02-07T21:13:11;38.00;;;17.65;;
20739;SDS011;10530;49.968;19.844;2023-02-07T21:18:14;78.82;;;28.13;;
20739;SDS011;10530;49.968;19.844;2023-02-07T21:23:17;81.20;;;28.77;;
20739;SDS011;10530;49.968;19.844;2023-02-07T21:28:21;67.60;;;27.65;;
20739;SDS011;10530;49.968;19.844;2023-02-07T21:33:24;47.45;;;22.02;;
20739;SDS011;10530;49.968;19.844;2023-02-07T21:38:27;67.65;;;23.95;;
20739;SDS011;10530;49.968;19.844;2023-02-07T21:43:30;69.70;;;28.27;;
20739;SDS011;10530;49.968;19.844;2023-02-07T21:48:33;64.73;;;24.20;;
20739;SDS011;10530;49.968;19.844;2023-02-07T21:53:37;66.07;;;23.73;;
20739;SDS011;10530;49.968;19.844;2023-02-07T21:58:41;74.55;;;27.90;;
20739;SDS011;10530;49.968;19.844;2023-02-07T22:03:45;82.63;;;28.75;;
20739;SDS011;10530;49.968;19.844;2023-02-07T22:08:50;68.85;;;25.63;;
20739;SDS011;10530;49.968;19.844;2023-02-07T22:13:55;66.10;;;27.27;;
20739;SDS011;10530;49.968;19.844;2023-02-07T22:18:59;60.92;;;24.30;;
20739;SDS011;10530;49.968;19.844;2023-02-07T22:24:04;60.15;;;24.08;;
20739;SDS011;10530;49.968;19.844;2023-02-07T22:29:08;79.75;;;26.00;;
20739;SDS011;10530;49.968;19.844;2023-02-07T22:34:11;35.85;;;18.50;;
20739;SDS011;10530;49.968;19.844;2023-02-07T22:39:15;73.67;;;24.93;;
20739;SDS011;10530;49.968;19.844;2023-02-07T22:44:19;73.72;;;27.48;;
20739;SDS011;10530;49.968;19.844;2023-02-07T22:49:21;41.00;;;19.48;;
20739;SDS011;10530;49.968;19.844;2023-02-07T22:54:24;57.92;;;26.15;;
20739;SDS011;10530;49.968;19.844;2023-02-07T22:59:27;49.55;;;18.33;;
20739;SDS011;10530;49.968;19.844;2023-02-07T23:04:30;75.03;;;26.33;;
20739;SDS011;10530;49.968;19.844;2023-02-07T23:09:32;75.47;;;24.77;;
20739;SDS011;10530;49.968;19.844;2023-02-07T23:14:35;84.85;;;27.60;;
20739;SDS011;10530;49.968;19.844;2023-02-07T23:19:38;46.42;;;18.27;;
20739;SDS011;10530;49.968;19.844;2023-02-07T23:24:41;72.65;;;26.80;;
20739;SDS011;10530;49.968;19.844;2023-02-07T23:29:44;85.90;;;29.40;;
20739;SDS011;10530;49.968;19.844;2023-02-07T23:34:46;60.13;;;23.38;;
20739;SDS011;10530;49.968;19.844;2023-02-07T23:39:49;60.50;;;20.98;;
20739;SDS011;10530;49.968;19.844;2023-02-07T23:44:52;70.57;;;24.95;;
20739;SDS011;10530;49.968;19.844;2023-02-07T23:49:55;62.60;;;23.83;;
20739;SDS011;10530;49.968;19.844;2023-02-07T23:54:58;55.60;;;20.17;;
